createdAt,value
2023-05-02T00:01:20.518Z,25.33
2023-05-02T00:03:47.359Z,25.60
2023-05-02T00:06:14.320Z,26.07
2023-05-02T00:08:41.516Z,30.77
2023-05-02T00:11:08.277Z,25.53
2023-05-02T00:13:34.980Z,27.83
2023-05-02T00:16:02.103Z,29.53
2023-05-02T00:18:28.853Z,27.90
2023-05-02T00:20:56.906Z,30.23
2023-05-02T00:23:24.036Z,34.07
2023-05-02T00:25:50.942Z,33.33
2023-05-02T00:28:18.557Z,34.03
2023-05-02T00:30:46.182Z,33.27
2023-05-02T00:33:14.795Z,36.87
2023-05-02T00:35:42.023Z,36.30
2023-05-02T00:38:09.035Z,34.23
2023-05-02T00:40:46.228Z,39.90
2023-05-02T00:43:13.432Z,37.57
2023-05-02T00:45:41.884Z,38.30
2023-05-02T00:48:09.283Z,38.43
2023-05-02T00:50:43.284Z,42.67
2023-05-02T00:53:10.983Z,46.03
2023-05-02T00:55:38.210Z,46.13
2023-05-02T00:58:14.356Z,44.83
2023-05-02T01:01:14.224Z,42.80
2023-05-02T01:03:59.819Z,43.27
2023-05-02T01:06:52.798Z,44.23
2023-05-02T01:09:40.471Z,40.77
2023-05-02T01:12:39.035Z,43.07
2023-05-02T01:15:08.959Z,43.07
2023-05-02T01:17:36.760Z,43.53
2023-05-02T01:20:07.145Z,39.50
2023-05-02T01:22:35.262Z,40.90
2023-05-02T01:25:17.081Z,44.53
2023-05-02T01:28:04.648Z,42.77
2023-05-02T01:30:34.034Z,43.03
2023-05-02T01:33:03.134Z,42.27
2023-05-02T01:35:32.768Z,41.60
2023-05-02T01:38:02.720Z,48.00
2023-05-02T01:40:30.754Z,46.30
2023-05-02T01:42:59.203Z,47.47
2023-05-02T01:45:27.652Z,52.13
2023-05-02T01:47:54.775Z,55.40
2023-05-02T01:50:24.999Z,52.03
2023-05-02T01:52:54.620Z,49.90
2023-05-02T01:55:22.098Z,50.13
2023-05-02T01:57:50.752Z,50.90
2023-05-02T02:00:19.573Z,48.97
2023-05-02T02:02:48.305Z,51.30
2023-05-02T02:05:16.165Z,51.83
2023-05-02T02:07:43.936Z,50.47
2023-05-02T02:10:11.285Z,51.47
2023-05-02T02:12:45.314Z,50.33
2023-05-02T02:15:12.421Z,51.13
2023-05-02T02:17:56.281Z,49.70
2023-05-02T02:20:23.493Z,53.33
2023-05-02T02:22:52.067Z,47.13
2023-05-02T02:25:19.886Z,52.73
2023-05-02T02:27:47.905Z,52.03
2023-05-02T02:30:16.504Z,54.03
2023-05-02T02:32:43.265Z,50.13
2023-05-02T02:35:10.714Z,51.87
2023-05-02T02:37:55.015Z,52.83
2023-05-02T02:40:38.465Z,54.57
2023-05-02T02:43:25.963Z,57.43
2023-05-02T02:46:07.706Z,56.33
2023-05-02T02:48:40.829Z,53.50
2023-05-02T02:51:29.990Z,49.17
2023-05-02T02:54:26.596Z,53.33
2023-05-02T02:57:02.747Z,54.13
2023-05-02T02:59:33.834Z,54.50
2023-05-02T03:02:04.387Z,52.57
2023-05-02T03:04:33.986Z,47.10
2023-05-02T03:07:01.670Z,57.80
2023-05-02T03:09:30.448Z,47.43
2023-05-02T03:11:57.572Z,43.53
2023-05-02T03:14:24.666Z,47.90
2023-05-02T03:16:51.857Z,47.27
2023-05-02T03:19:18.537Z,47.83
2023-05-02T03:21:46.062Z,49.30
2023-05-02T03:24:12.764Z,46.43
2023-05-02T03:26:39.550Z,53.17
2023-05-02T03:29:06.726Z,49.53
2023-05-02T03:31:33.498Z,49.40
2023-05-02T03:34:01.060Z,51.73
2023-05-02T03:36:28.005Z,45.60
2023-05-02T03:38:55.101Z,48.60
2023-05-02T03:41:22.848Z,43.00
2023-05-02T03:43:49.594Z,47.93
2023-05-02T03:46:16.418Z,41.73
2023-05-02T03:48:43.623Z,49.27
2023-05-02T03:51:10.748Z,43.60
2023-05-02T03:53:37.824Z,49.73
2023-05-02T03:56:04.783Z,43.17
2023-05-02T03:58:31.841Z,44.40
2023-05-02T04:00:58.666Z,43.67
2023-05-02T04:03:27.222Z,43.57
2023-05-02T04:06:00.147Z,48.73
2023-05-02T04:08:26.978Z,50.87
2023-05-02T04:10:54.073Z,46.47
2023-05-02T04:13:20.777Z,49.90
2023-05-02T04:15:47.486Z,47.30
2023-05-02T04:18:14.764Z,48.47
2023-05-02T04:20:44.585Z,43.13
2023-05-02T04:23:11.335Z,45.97
2023-05-02T04:25:37.975Z,50.63
2023-05-02T04:28:05.224Z,49.70
2023-05-02T04:30:32.175Z,46.13
2023-05-02T04:32:59.447Z,43.47
2023-05-02T04:35:26.650Z,44.80
2023-05-02T04:37:53.373Z,43.07
2023-05-02T04:40:20.541Z,37.73
2023-05-02T04:42:47.609Z,41.60
2023-05-02T04:45:14.250Z,41.07
2023-05-02T04:47:41.555Z,42.40
2023-05-02T04:50:09.147Z,41.27
2023-05-02T04:52:36.407Z,40.77
2023-05-02T04:55:03.216Z,42.53
2023-05-02T04:57:30.369Z,41.87
2023-05-02T04:59:57.544Z,41.20
2023-05-02T05:02:25.812Z,41.70
2023-05-02T05:04:52.799Z,43.17
2023-05-02T05:07:19.481Z,38.23
2023-05-02T05:09:46.570Z,37.50
2023-05-02T05:12:13.388Z,36.80
2023-05-02T05:14:40.227Z,42.17
2023-05-02T05:17:07.586Z,40.87
2023-05-02T05:19:34.658Z,39.60
2023-05-02T05:22:01.364Z,38.80
2023-05-02T05:24:28.040Z,38.83
2023-05-02T05:26:55.227Z,36.10
2023-05-02T05:29:22.430Z,43.60
2023-05-02T05:31:49.681Z,39.43
2023-05-02T05:34:16.698Z,38.90
2023-05-02T05:36:43.901Z,37.67
2023-05-02T05:39:10.797Z,40.50
2023-05-02T05:41:38.225Z,36.03
2023-05-02T05:44:05.411Z,38.77
2023-05-02T05:46:32.587Z,36.37
2023-05-02T05:48:59.402Z,35.13
2023-05-02T05:51:27.842Z,38.10
2023-05-02T05:53:54.996Z,40.47
2023-05-02T05:56:22.847Z,36.77
2023-05-02T05:58:50.049Z,40.13
2023-05-02T06:01:17.208Z,34.77
2023-05-02T06:03:44.448Z,36.43
2023-05-02T06:06:11.272Z,36.23
2023-05-02T06:08:38.028Z,38.00
2023-05-02T06:11:09.506Z,37.13
2023-05-02T06:13:36.274Z,37.53
2023-05-02T06:16:03.578Z,36.17
2023-05-02T06:18:30.342Z,34.40
2023-05-02T06:20:57.592Z,37.80
2023-05-02T06:23:24.714Z,32.17
2023-05-02T06:25:51.788Z,35.10
2023-05-02T06:28:18.490Z,31.90
2023-05-02T06:30:45.587Z,33.47
2023-05-02T06:33:12.437Z,31.17
2023-05-02T06:35:39.362Z,31.87
2023-05-02T06:38:06.414Z,35.80
2023-05-02T06:40:36.401Z,31.87
2023-05-02T06:43:03.542Z,35.17
2023-05-02T06:45:30.693Z,38.37
2023-05-02T06:47:57.850Z,40.93
2023-05-02T06:50:25.029Z,35.57
2023-05-02T06:52:55.536Z,33.57
2023-05-02T06:55:22.407Z,41.03
2023-05-02T06:57:49.992Z,41.43
2023-05-02T07:00:17.957Z,38.93
2023-05-02T07:02:45.542Z,40.90
2023-05-02T07:05:12.651Z,35.37
2023-05-02T07:07:39.771Z,36.83
2023-05-02T07:10:07.111Z,31.93
2023-05-02T07:12:33.808Z,32.57
2023-05-02T07:15:00.888Z,37.37
2023-05-02T07:17:28.081Z,32.63
2023-05-02T07:19:55.235Z,33.07
2023-05-02T07:22:22.308Z,30.50
2023-05-02T07:24:49.397Z,30.90
2023-05-02T07:27:16.445Z,27.33
2023-05-02T07:29:43.093Z,28.80
2023-05-02T07:32:10.389Z,24.90
2023-05-02T07:34:37.113Z,30.33
2023-05-02T07:37:04.205Z,29.03
2023-05-02T07:39:33.744Z,26.57
2023-05-02T07:42:01.323Z,25.90
2023-05-02T07:44:28.418Z,27.13
2023-05-02T07:46:55.452Z,24.33
2023-05-02T07:49:22.219Z,21.03
2023-05-02T07:51:49.376Z,21.37
2023-05-02T07:54:17.745Z,19.17
2023-05-02T07:56:44.923Z,18.63
2023-05-02T07:59:12.051Z,19.00
2023-05-02T08:01:42.647Z,17.30
2023-05-02T08:04:13.194Z,18.47
2023-05-02T08:06:40.908Z,20.70
2023-05-02T08:09:09.160Z,17.90
2023-05-02T08:11:36.221Z,20.20
2023-05-02T08:14:03.368Z,15.73
2023-05-02T08:16:30.601Z,17.83
2023-05-02T08:18:57.351Z,17.10
2023-05-02T08:21:24.439Z,15.83
2023-05-02T08:23:51.504Z,15.77
2023-05-02T08:26:19.037Z,14.83
2023-05-02T08:28:46.112Z,12.87
2023-05-02T08:31:12.854Z,14.03
2023-05-02T08:33:39.954Z,16.53
2023-05-02T08:36:13.876Z,12.87
2023-05-02T08:38:41.075Z,12.00
2023-05-02T08:41:18.462Z,12.00
2023-05-02T08:43:48.285Z,13.47
2023-05-02T08:46:17.237Z,13.07
2023-05-02T08:48:48.002Z,14.13
2023-05-02T08:51:16.801Z,15.50
2023-05-02T08:53:44.286Z,11.20
2023-05-02T08:56:12.903Z,15.03
2023-05-02T08:58:41.586Z,12.77
2023-05-02T09:01:16.747Z,14.87
2023-05-02T09:03:45.538Z,16.00
2023-05-02T09:06:20.527Z,18.20
2023-05-02T09:08:50.303Z,14.50
2023-05-02T09:11:17.575Z,16.97
2023-05-02T09:13:46.189Z,17.00
2023-05-02T09:16:24.107Z,10.07
2023-05-02T09:18:52.912Z,6.93
2023-05-02T09:21:21.600Z,7.37
2023-05-02T09:23:50.525Z,4.83
2023-05-02T09:26:35.450Z,8.17
2023-05-02T09:29:04.536Z,11.27
2023-05-02T09:31:54.988Z,8.53
2023-05-02T09:34:22.849Z,11.73
2023-05-02T09:36:51.964Z,10.70
2023-05-02T09:39:23.792Z,10.47
2023-05-02T09:41:52.920Z,12.07
2023-05-02T09:44:25.847Z,11.27
2023-05-02T09:46:54.532Z,10.50
2023-05-02T09:49:46.879Z,11.37
2023-05-02T09:52:16.173Z,12.87
2023-05-02T09:54:43.480Z,12.43
2023-05-02T09:57:11.424Z,13.23
2023-05-02T09:59:39.817Z,11.77
2023-05-02T10:02:09.493Z,17.43
2023-05-02T10:04:36.800Z,10.53
2023-05-02T10:07:03.743Z,9.70
2023-05-02T10:09:32.805Z,11.50
2023-05-02T10:12:06.650Z,10.07
2023-05-02T10:14:39.382Z,8.97
2023-05-02T10:17:21.501Z,13.23
2023-05-02T10:19:56.390Z,9.30
2023-05-02T10:22:23.692Z,9.77
2023-05-02T10:24:50.598Z,12.47
2023-05-02T10:27:17.731Z,10.90
2023-05-02T10:29:45.102Z,11.33
2023-05-02T10:32:12.292Z,11.57
2023-05-02T10:34:40.266Z,9.97
2023-05-02T10:37:07.360Z,9.50
2023-05-02T10:39:34.299Z,6.47
2023-05-02T10:42:03.397Z,9.40
2023-05-02T10:44:37.080Z,7.83
2023-05-02T10:47:22.438Z,8.07
2023-05-02T10:49:54.149Z,8.00
2023-05-02T10:52:38.557Z,10.97
2023-05-02T10:55:21.980Z,9.73
2023-05-02T10:58:00.515Z,8.57
2023-05-02T11:00:35.101Z,7.87
2023-05-02T11:03:02.530Z,7.87
2023-05-02T11:05:30.403Z,9.50
2023-05-02T11:08:15.420Z,9.77
2023-05-02T11:10:42.398Z,8.03
2023-05-02T11:13:09.516Z,8.80
2023-05-02T11:15:42.406Z,5.37
2023-05-02T11:18:09.647Z,8.97
2023-05-02T11:20:39.545Z,7.17
2023-05-02T11:23:21.546Z,6.63
2023-05-02T11:25:50.167Z,7.77
2023-05-02T11:28:38.647Z,8.60
2023-05-02T11:31:10.915Z,5.93
2023-05-02T11:33:38.080Z,8.03
2023-05-02T11:36:05.290Z,9.03
2023-05-02T11:38:39.034Z,8.17
2023-05-02T11:41:06.246Z,7.73
2023-05-02T11:43:33.496Z,7.13
2023-05-02T11:46:01.759Z,6.63
2023-05-02T11:48:29.566Z,6.10
2023-05-02T11:51:04.809Z,6.90
2023-05-02T11:53:32.811Z,7.63
2023-05-02T11:56:01.060Z,9.53
2023-05-02T11:58:30.123Z,7.93
2023-05-02T12:00:57.429Z,9.03
2023-05-02T12:03:31.317Z,10.50
2023-05-02T12:05:59.349Z,6.70
2023-05-02T12:08:27.558Z,8.17
2023-05-02T12:10:55.925Z,8.23
2023-05-02T12:13:24.311Z,8.57
2023-05-02T12:15:52.175Z,7.20
2023-05-02T12:18:22.036Z,11.03
2023-05-02T12:20:49.615Z,11.07
2023-05-02T12:23:16.641Z,10.70
2023-05-02T12:25:43.403Z,12.83
2023-05-02T12:28:10.877Z,8.13
2023-05-02T12:30:38.798Z,10.30
2023-05-02T12:33:06.487Z,5.93
2023-05-02T12:35:34.933Z,6.40
2023-05-02T12:38:20.311Z,7.70
2023-05-02T12:40:48.668Z,10.63
2023-05-02T12:43:15.602Z,7.83
2023-05-02T12:45:43.712Z,7.67
2023-05-02T12:48:22.014Z,7.73
2023-05-02T12:50:49.294Z,7.00
2023-05-02T12:53:16.148Z,6.73
2023-05-02T12:55:43.005Z,7.33
2023-05-02T12:58:13.520Z,7.93
2023-05-02T13:00:43.631Z,9.17
2023-05-02T13:03:11.984Z,8.17
2023-05-02T13:05:38.833Z,8.83
2023-05-02T13:08:06.159Z,9.57
2023-05-02T13:10:33.157Z,8.23
2023-05-02T13:12:59.869Z,7.70
2023-05-02T13:15:27.083Z,10.33
2023-05-02T13:17:53.972Z,10.83
2023-05-02T13:20:21.235Z,8.83
2023-05-02T13:22:48.394Z,7.60
2023-05-02T13:25:15.118Z,8.70
2023-05-02T13:27:41.797Z,7.00
2023-05-02T13:30:09.945Z,9.80
2023-05-02T13:32:37.426Z,9.90
2023-05-02T13:35:04.717Z,10.13
2023-05-02T13:37:31.854Z,7.93
2023-05-02T13:39:59.289Z,10.20
2023-05-02T13:42:26.799Z,9.40
2023-05-02T13:44:53.983Z,9.07
2023-05-02T13:47:21.518Z,9.10
2023-05-02T13:49:48.637Z,11.43
2023-05-02T13:52:15.487Z,10.03
2023-05-02T13:54:42.380Z,9.67
2023-05-02T13:57:09.450Z,8.03
2023-05-02T13:59:36.571Z,10.40
2023-05-02T14:02:03.674Z,9.30
2023-05-02T14:04:30.923Z,7.87
2023-05-02T14:06:58.002Z,9.77
2023-05-02T14:09:25.477Z,10.43
2023-05-02T14:11:52.207Z,7.60
2023-05-02T14:14:19.601Z,9.50
2023-05-02T14:16:47.651Z,7.43
2023-05-02T14:19:16.346Z,6.07
2023-05-02T14:21:43.455Z,6.40
2023-05-02T14:24:12.284Z,7.47
2023-05-02T14:26:38.964Z,9.93
2023-05-02T14:29:06.185Z,7.63
2023-05-02T14:31:33.405Z,9.60
2023-05-02T14:34:00.099Z,7.53
2023-05-02T14:36:27.174Z,9.47
2023-05-02T14:38:54.323Z,7.60
2023-05-02T14:41:21.530Z,10.80
2023-05-02T14:43:48.691Z,9.73
2023-05-02T14:46:15.684Z,9.37
2023-05-02T14:48:42.825Z,9.00
2023-05-02T14:51:09.485Z,9.50
2023-05-02T14:53:36.403Z,8.40
2023-05-02T14:56:03.518Z,8.17
2023-05-02T14:58:30.263Z,9.90
2023-05-02T15:00:57.384Z,9.73
2023-05-02T15:03:24.695Z,9.90
2023-05-02T15:05:51.925Z,7.30
2023-05-02T15:08:19.531Z,11.47
2023-05-02T15:10:46.228Z,9.57
2023-05-02T15:13:13.380Z,9.50
2023-05-02T15:15:40.488Z,8.80
2023-05-02T15:18:07.789Z,12.03
2023-05-02T15:20:39.584Z,6.90
2023-05-02T15:23:06.663Z,10.37
2023-05-02T15:25:33.737Z,7.63
2023-05-02T15:28:02.294Z,7.00
2023-05-02T15:30:29.420Z,7.87
2023-05-02T15:32:56.600Z,9.20
2023-05-02T15:35:23.712Z,8.93
2023-05-02T15:37:50.776Z,7.23
2023-05-02T15:40:17.610Z,8.90
2023-05-02T15:42:44.311Z,5.60
2023-05-02T15:45:14.138Z,9.03
2023-05-02T15:47:41.288Z,7.27
2023-05-02T15:50:10.599Z,8.37
2023-05-02T15:52:37.350Z,7.60
2023-05-02T15:55:05.107Z,7.53
2023-05-02T15:57:31.788Z,7.83
2023-05-02T15:59:58.487Z,8.33
2023-05-02T16:02:26.002Z,9.80
2023-05-02T16:04:52.673Z,10.40
2023-05-02T16:07:19.775Z,7.97
2023-05-02T16:09:46.873Z,8.27
2023-05-02T16:12:14.628Z,5.87
2023-05-02T16:14:41.739Z,6.90
2023-05-02T16:17:08.509Z,5.73
2023-05-02T16:19:35.598Z,5.60
2023-05-02T16:22:03.313Z,5.63
2023-05-02T16:24:30.538Z,8.57
2023-05-02T16:26:57.247Z,6.77
2023-05-02T16:29:23.986Z,9.97
2023-05-02T16:31:51.180Z,9.13
2023-05-02T16:34:17.893Z,5.47
2023-05-02T16:36:46.719Z,7.43
2023-05-02T16:39:13.839Z,6.93
2023-05-02T16:41:40.796Z,7.77
2023-05-02T16:44:07.582Z,6.37
2023-05-02T16:46:34.351Z,7.43
2023-05-02T16:49:01.518Z,7.00
2023-05-02T16:51:28.397Z,6.27
2023-05-02T16:53:55.626Z,10.97
2023-05-02T16:56:22.775Z,9.00
2023-05-02T16:58:49.936Z,6.40
2023-05-02T17:01:17.276Z,10.97
2023-05-02T17:03:44.457Z,6.17
2023-05-02T17:06:11.304Z,9.73
2023-05-02T17:08:39.147Z,6.83
2023-05-02T17:11:07.668Z,7.73
2023-05-02T17:13:34.796Z,10.40
2023-05-02T17:16:02.402Z,6.13
2023-05-02T17:18:29.582Z,8.97
2023-05-02T17:20:56.908Z,7.87
2023-05-02T17:23:23.910Z,11.97
2023-05-02T17:25:51.553Z,11.83
2023-05-02T17:28:18.213Z,9.40
2023-05-02T17:30:46.054Z,13.40
2023-05-02T17:33:12.848Z,7.03
2023-05-02T17:35:40.078Z,12.43
2023-05-02T17:38:07.176Z,11.30
2023-05-02T17:40:35.993Z,9.93
2023-05-02T17:43:05.232Z,13.03
2023-05-02T17:45:32.295Z,9.13
2023-05-02T17:47:59.015Z,9.00
2023-05-02T17:50:26.633Z,13.93
2023-05-02T17:52:53.436Z,12.60
2023-05-02T17:55:20.868Z,8.60
2023-05-02T17:57:48.508Z,10.53
2023-05-02T18:00:15.466Z,8.23
2023-05-02T18:02:42.268Z,8.27
2023-05-02T18:05:09.543Z,12.33
2023-05-02T18:07:36.303Z,9.37
2023-05-02T18:10:05.234Z,10.33
2023-05-02T18:12:33.655Z,6.80
2023-05-02T18:15:03.012Z,8.63
2023-05-02T18:17:30.321Z,9.60
2023-05-02T18:19:57.458Z,9.23
2023-05-02T18:22:24.700Z,10.83
2023-05-02T18:24:53.321Z,9.57
2023-05-02T18:27:20.580Z,9.47
2023-05-02T18:29:47.860Z,11.57
2023-05-02T18:32:14.984Z,10.93
2023-05-02T18:34:42.057Z,9.07
2023-05-02T18:37:08.885Z,11.97
2023-05-02T18:39:36.149Z,13.60
2023-05-02T18:42:03.556Z,20.80
2023-05-02T18:44:31.165Z,21.13
2023-05-02T18:46:58.599Z,16.10
2023-05-02T18:49:26.179Z,21.40
2023-05-02T18:51:56.080Z,14.80
2023-05-02T18:54:24.161Z,14.97
2023-05-02T18:56:51.606Z,15.83
2023-05-02T18:59:18.916Z,13.97
2023-05-02T19:01:48.254Z,13.60
2023-05-02T19:04:15.510Z,12.33
2023-05-02T19:06:42.411Z,9.30
2023-05-02T19:09:09.610Z,10.83
2023-05-02T19:11:36.804Z,12.03
2023-05-02T19:14:03.931Z,11.97
2023-05-02T19:16:32.204Z,10.67
2023-05-02T19:18:59.388Z,11.93
2023-05-02T19:21:27.321Z,12.93
2023-05-02T19:23:56.492Z,9.67
2023-05-02T19:26:23.639Z,11.40
2023-05-02T19:28:50.733Z,9.30
2023-05-02T19:31:19.574Z,10.07
2023-05-02T19:33:51.554Z,9.23
2023-05-02T19:36:19.820Z,8.00
2023-05-02T19:38:58.092Z,10.53
2023-05-02T19:41:25.141Z,11.23
2023-05-02T19:43:52.594Z,10.17
2023-05-02T19:46:19.932Z,9.73
2023-05-02T19:48:47.549Z,11.53
2023-05-02T19:51:14.666Z,10.67
2023-05-02T19:53:41.778Z,10.23
2023-05-02T19:56:08.453Z,11.53
2023-05-02T19:58:35.929Z,11.80
2023-05-02T20:01:03.554Z,9.77
2023-05-02T20:03:31.004Z,13.50
2023-05-02T20:05:58.517Z,10.90
2023-05-02T20:08:27.815Z,10.33
2023-05-02T20:10:55.573Z,13.50
2023-05-02T20:13:22.346Z,10.93
2023-05-02T20:15:50.665Z,13.07
2023-05-02T20:18:17.436Z,10.30
2023-05-02T20:20:44.680Z,11.07
2023-05-02T20:23:11.733Z,11.63
2023-05-02T20:25:40.336Z,9.10
2023-05-02T20:28:07.874Z,11.87
2023-05-02T20:30:35.572Z,8.77
2023-05-02T20:33:14.106Z,10.77
2023-05-02T20:35:43.132Z,9.23
2023-05-02T20:38:10.023Z,9.73
2023-05-02T20:40:39.823Z,10.63
2023-05-02T20:43:07.356Z,13.93
2023-05-02T20:45:34.606Z,9.07
2023-05-02T20:48:01.815Z,11.00
2023-05-02T20:50:28.752Z,12.67
2023-05-02T20:52:56.473Z,11.77
2023-05-02T20:55:24.018Z,8.53
2023-05-02T20:57:52.924Z,13.10
2023-05-02T21:00:22.372Z,10.30
2023-05-02T21:02:49.803Z,10.03
2023-05-02T21:05:16.765Z,11.93
2023-05-02T21:07:44.655Z,13.00
2023-05-02T21:10:11.877Z,13.10
2023-05-02T21:12:39.463Z,8.37
2023-05-02T21:15:07.466Z,12.13
2023-05-02T21:17:34.772Z,7.50
2023-05-02T21:20:02.200Z,12.90
2023-05-02T21:22:29.594Z,12.20
2023-05-02T21:24:56.654Z,10.97
2023-05-02T21:27:23.620Z,13.30
2023-05-02T21:29:50.928Z,10.63
2023-05-02T21:32:18.022Z,12.37
2023-05-02T21:34:44.654Z,8.60
2023-05-02T21:37:11.767Z,10.27
2023-05-02T21:39:39.512Z,15.20
2023-05-02T21:42:06.237Z,15.23
2023-05-02T21:44:33.340Z,13.63
2023-05-02T21:47:00.080Z,12.00
2023-05-02T21:49:29.884Z,12.13
2023-05-02T21:51:58.328Z,10.97
2023-05-02T21:54:25.029Z,10.80
2023-05-02T21:56:53.190Z,10.43
2023-05-02T21:59:20.320Z,11.70
2023-05-02T22:01:47.047Z,9.17
2023-05-02T22:04:13.822Z,10.03
2023-05-02T22:06:41.404Z,10.90
2023-05-02T22:09:08.334Z,11.03
2023-05-02T22:11:38.047Z,11.87
2023-05-02T22:14:05.331Z,13.47
2023-05-02T22:16:32.536Z,12.77
2023-05-02T22:19:01.191Z,17.10
2023-05-02T22:21:28.863Z,12.90
2023-05-02T22:23:56.338Z,11.30
2023-05-02T22:26:23.551Z,13.67
2023-05-02T22:28:50.931Z,12.07
2023-05-02T22:31:19.235Z,10.73
2023-05-02T22:33:49.779Z,12.10
2023-05-02T22:36:17.595Z,12.10
2023-05-02T22:38:44.686Z,10.33
2023-05-02T22:41:11.760Z,7.90
2023-05-02T22:43:38.507Z,9.97
2023-05-02T22:46:05.665Z,10.50
2023-05-02T22:48:32.867Z,11.07
2023-05-02T22:51:00.018Z,10.07
2023-05-02T22:53:26.816Z,11.47
2023-05-02T22:55:53.564Z,11.40
2023-05-02T22:58:20.615Z,8.13
2023-05-02T23:00:47.803Z,12.73
2023-05-02T23:03:14.677Z,13.13
2023-05-02T23:05:41.917Z,10.73
2023-05-02T23:08:09.018Z,9.90
2023-05-02T23:10:35.674Z,9.23
2023-05-02T23:13:02.750Z,10.10
2023-05-02T23:15:29.812Z,7.33
2023-05-02T23:17:56.517Z,12.50
2023-05-02T23:20:23.718Z,11.37
2023-05-02T23:22:51.176Z,10.13
2023-05-02T23:25:18.778Z,11.23
2023-05-02T23:27:45.619Z,8.73
2023-05-02T23:30:12.496Z,12.63
2023-05-02T23:32:39.681Z,10.27
2023-05-02T23:35:06.999Z,9.77
2023-05-02T23:37:34.136Z,8.23
2023-05-02T23:40:01.356Z,12.20
2023-05-02T23:42:29.970Z,13.27
2023-05-02T23:44:57.691Z,8.33
2023-05-02T23:47:28.690Z,11.90
2023-05-02T23:49:56.334Z,9.00
2023-05-02T23:52:23.415Z,11.30
2023-05-02T23:54:50.561Z,11.47
2023-05-02T23:57:17.638Z,11.30
2023-05-02T23:59:44.494Z,8.67
